Main page
METAR-TAF:

METAR-TAF

Airports :

Dundee Airport

Dundee, Scotland

latitude: 56-27N, longitude: 003-01W, elevation: 4 m

Current weather observation

The report was made 16 minutes ago, at 18:50 UTC
Wind 3 kt from variable directions
Temperature 3°C
Humidity 81%
Pressure 1009 hPa
Visibility 10 km or more
Few clouds at a height of 2800 ft

METAR: EGPN 181850Z VRB03KT 9999 FEW028 03/M00 Q1009

Time: 19:06 (19:06 UTC)

Forecast

The report was made 2 hours and 9 minutes ago, at 16:57 UTC
Forecast valid from 18 at 18 UTC to 18 at 21 UTC
Wind 5 kt from the East/Southeast
Visibility 10 km or more
Scattered clouds at a height of 3000 ft
Probability 30% :
Temporary
from 18 at 19 UTC to 18 at 21 UTC
Broken clouds at a height of 1200 ft

TAF: EGPN 181657Z 1818/1821 12005KT 9999 SCT030 PROB30 TEMPO 1819/1821 BKN012

Weather observations and forecasts of more than 4000 airports (METAR and TAF reports).

The available stations are represented by yellow and red dots on the map.

Hover mouse over dot to see the name of the station.

Then click to see weather observations and forecasts.

To change the map : click on the green buttons with a black cross to zoom in, on the green button with a dash to zoom out, or on the green arrows for adjacent maps.


METAR-TAF: